Terminal Aerodrome Forecast
Issued by NWS Indianapolis, IN

Home | Current Version | Previous Version | Text Only | Print | Product List | Glossary On
Versions: 1 2 3 4 5 6 7 8 9 10 11 12 13 14 15 16 17 18 19 20 21 22 23 24 25 26 27 28
000
FTUS43 KIND 020800 AAA
TAFIND
TAF AMD
KIND 020816Z 0208/0312 22008KT 3SM -TSRA BR SCT020CB OVC040
     FM021300 25009KT P6SM VCSH BKN025
     FM021900 24008KT P6SM SCT040 BKN250
     FM030000 26003KT P6SM SCT250=

USA.gov is the U.S. government's official web portal to all federal, state and local government web resources and services.